Terminal Aerodrome Forecast
Issued by NWS

Home | Current Version | Previous Version | Text Only | Print | Product List | Glossary On
Versions: 1 2 3 4 5 6 7 8 9 10 11 12 13 14 15 16 17 18 19 20 21 22 23 24 25 26 27
000
FTUS41 KBUF 010500
TAFJHW
TAF
KJHW 010528Z 0106/0206 VRB03KT 1/2SM FG OVC002
      TEMPO 0106/0110 2SM BR SCT002 OVC006
     FM011300 10004KT P6SM BKN012
     FM011600 11005KT P6SM SCT012
     FM012000 09004KT P6SM SCT035
     FM012300 VRB03KT P6SM SCT025
     FM020200 VRB03KT P6SM SCT250
      AMD LTD TO CLD VIS AND WIND=

USA.gov is the U.S. government's official web portal to all federal, state and local government web resources and services.